NCAR-RAP Real-Time Weather Data

Output produced by METARs form (31 March 2015  15:27 UTC)
found at http://weather.rap.ucar.edu/surface/
 
Conditions at: K4O4 observed 31 March 2015  15:15 UTC
Temperature: 19.0°C (66°F)
Dewpoint: 16.0°C (61°F) [RH = 83%]
Pressure (altimeter): 30.02 inches Hg (1016.7 mb)
Winds: from the SW (220 degrees) at 10 MPH (9 knots; 4.7 m/s)
Visibility: 7 miles (11 km)
Ceiling: 1100 feet AGL
Clouds: overcast cloud deck at 1100 feet AGL
Present Weather: automated observation with no human augmentation;
there may or may not be significant weather present at this time
K4O4 311515Z AUTO 22009KT 7SM OVC011 19/16 A3002 RMK AO2